createdAt,value
2023-02-15T00:00:00.937Z,6.62
2023-02-15T00:02:27.826Z,6.60
2023-02-15T00:04:56.592Z,6.59
2023-02-15T00:07:23.376Z,6.58
2023-02-15T00:09:50.179Z,6.57
2023-02-15T00:12:17.510Z,6.53
2023-02-15T00:14:44.584Z,6.52
2023-02-15T00:17:11.381Z,6.50
2023-02-15T00:19:38.217Z,6.48
2023-02-15T00:22:04.957Z,6.45
2023-02-15T00:24:31.735Z,6.44
2023-02-15T00:26:58.833Z,6.42
2023-02-15T00:29:26.024Z,6.39
2023-02-15T00:31:53.373Z,6.37
2023-02-15T00:34:23.974Z,6.34
2023-02-15T00:36:51.032Z,6.30
2023-02-15T00:39:18.858Z,6.29
2023-02-15T00:41:47.292Z,6.25
2023-02-15T00:44:14.870Z,6.24
2023-02-15T00:46:41.757Z,6.21
2023-02-15T00:49:08.612Z,6.18
2023-02-15T00:51:35.460Z,6.16
2023-02-15T00:54:02.313Z,6.14
2023-02-15T00:56:29.387Z,6.12
2023-02-15T00:58:56.571Z,6.09
2023-02-15T01:01:24.450Z,6.07
2023-02-15T01:03:51.264Z,6.06
2023-02-15T01:06:18.842Z,6.04
2023-02-15T01:08:47.159Z,6.02
2023-02-15T01:11:24.642Z,6.01
2023-02-15T01:13:57.621Z,5.98
2023-02-15T01:16:27.749Z,5.95
2023-02-15T01:18:55.559Z,5.93
2023-02-15T01:21:26.103Z,5.89
2023-02-15T01:23:53.016Z,5.87
2023-02-15T01:26:20.049Z,5.87
2023-02-15T01:28:47.052Z,5.84
2023-02-15T01:31:18.077Z,5.83
2023-02-15T01:33:45.223Z,5.79
2023-02-15T01:36:12.080Z,5.78
2023-02-15T01:38:40.603Z,5.76
2023-02-15T01:41:27.167Z,5.74
2023-02-15T01:44:00.785Z,5.72
2023-02-15T01:46:38.434Z,5.70
2023-02-15T01:49:19.177Z,5.67
2023-02-15T01:51:49.578Z,5.64
2023-02-15T01:54:25.650Z,5.64
2023-02-15T01:56:55.877Z,5.62
2023-02-15T01:59:29.377Z,5.61
2023-02-15T02:01:59.618Z,5.57
2023-02-15T02:04:34.943Z,5.56
2023-02-15T02:07:10.591Z,5.54
2023-02-15T02:09:37.943Z,5.52
2023-02-15T03:12:47.608Z,4.96
2023-02-15T03:16:01.925Z,4.96
2023-02-15T03:19:04.184Z,4.91
2023-02-15T03:22:51.106Z,4.87
2023-02-15T03:26:06.069Z,4.84
2023-02-15T03:29:08.868Z,4.81
2023-02-15T03:31:46.433Z,4.81
2023-02-15T03:34:15.869Z,4.81
2023-02-15T03:37:14.773Z,4.79
2023-02-15T03:40:39.304Z,4.78
2023-02-15T03:43:24.867Z,4.76
2023-02-15T03:45:59.404Z,4.72
2023-02-15T03:48:32.596Z,4.72
2023-02-15T03:51:28.080Z,4.72
2023-02-15T03:53:56.369Z,4.70
2023-02-15T03:56:23.186Z,4.69
2023-02-15T03:59:14.134Z,4.69
2023-02-15T04:02:10.452Z,4.67
2023-02-15T04:04:50.808Z,4.64
2023-02-15T04:07:33.337Z,4.63
2023-02-15T04:10:31.298Z,4.63
2023-02-15T04:13:01.020Z,4.61
2023-02-15T04:15:55.299Z,4.60
2023-02-15T04:18:22.119Z,4.57
2023-02-15T04:21:09.896Z,4.57
2023-02-15T04:23:58.505Z,4.54
2023-02-15T04:26:30.422Z,4.51
2023-02-15T04:28:59.792Z,4.51
2023-02-15T04:31:26.711Z,4.51
2023-02-15T04:34:07.150Z,4.51
2023-02-15T04:36:39.614Z,4.48
2023-02-15T04:39:17.522Z,4.47
2023-02-15T04:42:02.580Z,4.47
2023-02-15T04:44:35.150Z,4.43
2023-02-15T04:47:10.774Z,4.40
2023-02-15T04:49:37.656Z,4.40
2023-02-15T04:52:10.404Z,4.39
2023-02-15T04:54:37.581Z,4.39
2023-02-15T04:57:13.883Z,4.37
2023-02-15T04:59:46.732Z,4.31
2023-02-15T05:02:19.527Z,4.31
2023-02-15T05:04:46.503Z,4.29
2023-02-15T05:07:13.312Z,4.28
2023-02-15T05:09:40.106Z,4.29
2023-02-15T05:12:07.234Z,4.29
2023-02-15T05:14:33.988Z,4.28
2023-02-15T05:17:32.897Z,4.27
2023-02-15T05:20:22.367Z,4.24
2023-02-15T05:23:15.545Z,4.22
2023-02-15T05:26:21.968Z,4.20
2023-02-15T05:31:10.747Z,4.16
2023-02-15T05:32:46.100Z,4.13
2023-02-15T05:35:28.190Z,4.12
2023-02-15T05:39:01.628Z,4.12
2023-02-15T05:42:02.767Z,4.09
2023-02-15T05:44:43.666Z,4.07
2023-02-15T05:47:39.293Z,4.07
2023-02-15T05:50:32.950Z,4.06
2023-02-15T05:53:24.644Z,4.03
2023-02-15T05:56:30.249Z,4.01
2023-02-15T06:02:17.479Z,3.97
2023-02-15T06:04:58.611Z,3.97
2023-02-15T06:08:07.410Z,3.96
2023-02-15T06:11:03.024Z,3.95
2023-02-15T06:13:38.532Z,3.95
2023-02-15T06:16:07.294Z,3.95
2023-02-15T06:18:34.785Z,3.94
2023-02-15T06:21:01.538Z,3.94
2023-02-15T06:23:28.468Z,3.95
2023-02-15T06:25:55.282Z,3.95
2023-02-15T06:28:43.837Z,3.95
2023-02-15T06:31:36.791Z,3.94
2023-02-15T06:34:23.169Z,3.93
2023-02-15T06:37:24.671Z,3.92
2023-02-15T06:39:51.450Z,3.90
2023-02-15T06:42:19.192Z,3.91
2023-02-15T06:44:46.536Z,3.92
2023-02-15T06:47:13.327Z,3.92
2023-02-15T06:49:40.141Z,3.92
2023-02-15T06:52:07.109Z,3.95
2023-02-15T06:54:34.015Z,3.95
2023-02-15T06:57:00.741Z,3.98
2023-02-15T06:59:28.557Z,3.99
2023-02-15T07:01:55.425Z,4.00
2023-02-15T07:04:22.411Z,4.03
2023-02-15T07:06:49.182Z,4.06
2023-02-15T07:09:15.977Z,4.08
2023-02-15T07:12:01.085Z,4.11
2023-02-15T07:14:29.028Z,4.13
2023-02-15T07:16:55.934Z,4.18
2023-02-15T07:19:22.692Z,4.21
2023-02-15T07:21:49.491Z,4.24
2023-02-15T07:24:16.283Z,4.28
2023-02-15T07:26:43.074Z,4.33
2023-02-15T07:29:09.968Z,4.39
2023-02-15T07:31:36.727Z,4.45
2023-02-15T07:34:03.508Z,4.52
2023-02-15T07:36:30.342Z,4.62
2023-02-15T07:38:57.130Z,4.74
2023-02-15T07:41:24.563Z,4.90
2023-02-15T07:43:51.365Z,5.12
2023-02-15T07:46:19.989Z,5.38
2023-02-15T07:48:46.856Z,5.64
2023-02-15T07:51:15.376Z,5.91
2023-02-15T07:53:44.780Z,6.19
2023-02-15T07:56:14.377Z,6.45
2023-02-15T07:58:52.332Z,6.69
2023-02-15T08:01:24.724Z,6.93
2023-02-15T08:03:52.042Z,7.11
2023-02-15T08:06:27.145Z,7.27
2023-02-15T08:08:54.346Z,7.43
2023-02-15T08:11:26.271Z,7.56
2023-02-15T08:13:57.106Z,7.68
2023-02-15T08:16:32.101Z,7.79
2023-02-15T08:19:06.147Z,7.86
2023-02-15T08:21:35.169Z,7.93
2023-02-15T08:24:02.980Z,7.95
2023-02-15T08:26:30.614Z,8.00
2023-02-15T08:28:58.683Z,8.03
2023-02-15T08:31:25.917Z,8.05
2023-02-15T08:33:55.451Z,8.08
2023-02-15T08:36:26.108Z,8.09
2023-02-15T08:38:52.934Z,8.09
2023-02-15T08:41:40.041Z,8.10
2023-02-15T08:44:08.984Z,8.13
2023-02-15T08:46:41.002Z,8.14
2023-02-15T08:49:08.391Z,8.16
2023-02-15T08:51:38.746Z,8.20
2023-02-15T08:54:10.300Z,8.21
2023-02-15T08:56:40.562Z,8.23
2023-02-15T08:59:16.019Z,8.26
2023-02-15T09:01:43.472Z,8.29
2023-02-15T09:04:10.772Z,8.31
2023-02-15T09:06:42.198Z,8.36
2023-02-15T09:09:09.251Z,8.38
2023-02-15T09:11:43.371Z,8.43
2023-02-15T09:14:18.785Z,8.44
2023-02-15T09:16:49.357Z,8.46
2023-02-15T09:19:18.990Z,8.51
2023-02-15T09:21:47.605Z,8.57
2023-02-15T09:24:16.826Z,8.63
2023-02-15T09:26:46.775Z,8.68
2023-02-15T09:29:14.837Z,8.74
2023-02-15T09:31:46.054Z,8.80
2023-02-15T09:34:14.502Z,8.84
2023-02-15T09:36:42.241Z,8.87
2023-02-15T09:39:18.173Z,8.92
2023-02-15T09:42:11.532Z,8.98
2023-02-15T09:45:15.800Z,9.03
2023-02-15T09:48:28.474Z,9.07
2023-02-15T09:51:31.218Z,9.10
2023-02-15T09:54:30.430Z,9.15
2023-02-15T09:57:07.135Z,9.18
2023-02-15T10:00:13.856Z,9.22
2023-02-15T10:03:30.017Z,9.27
2023-02-15T10:06:25.461Z,9.31
2023-02-15T10:09:32.454Z,9.37
2023-02-15T10:12:24.368Z,9.41
2023-02-15T10:14:53.855Z,9.48
2023-02-15T10:17:44.335Z,9.54
2023-02-15T10:20:40.794Z,9.59
2023-02-15T10:23:41.269Z,9.66
2023-02-15T10:26:23.608Z,9.73
2023-02-15T10:29:17.138Z,9.79
2023-02-15T10:31:53.910Z,9.87
2023-02-15T10:34:29.155Z,9.95
2023-02-15T10:37:18.708Z,10.02
2023-02-15T10:40:12.954Z,10.10
2023-02-15T10:42:54.699Z,10.16
2023-02-15T10:45:30.876Z,10.22
2023-02-15T10:48:30.959Z,10.31
2023-02-15T10:51:01.704Z,10.36
2023-02-15T10:54:06.248Z,10.41
2023-02-15T10:57:10.593Z,10.45
2023-02-15T11:00:08.676Z,10.52
2023-02-15T11:03:01.518Z,10.59
2023-02-15T11:05:41.531Z,10.64
2023-02-15T11:08:11.480Z,10.68
2023-02-15T11:10:45.575Z,10.72
2023-02-15T11:13:18.219Z,10.75
2023-02-15T11:15:56.359Z,10.80
2023-02-15T11:18:35.516Z,10.85
2023-02-15T11:21:14.560Z,10.89
2023-02-15T11:23:47.963Z,10.96
2023-02-15T11:26:35.948Z,11.00
2023-02-15T11:29:15.405Z,11.03
2023-02-15T11:31:56.005Z,11.08
2023-02-15T11:34:37.449Z,11.12
2023-02-15T11:37:18.170Z,11.16
2023-02-15T11:39:45.292Z,11.19
2023-02-15T11:42:19.843Z,11.25
2023-02-15T11:45:03.585Z,11.31
2023-02-15T11:47:30.408Z,11.33
2023-02-15T11:49:58.637Z,11.40
2023-02-15T11:52:25.436Z,11.45
2023-02-15T11:54:53.397Z,11.50
2023-02-15T11:57:32.813Z,11.55
2023-02-15T12:00:27.704Z,11.59
2023-02-15T12:02:58.409Z,11.63
2023-02-15T12:05:28.444Z,11.68
2023-02-15T12:08:24.909Z,11.74
2023-02-15T12:11:36.994Z,11.80
2023-02-15T12:14:10.633Z,11.85
2023-02-15T12:16:55.979Z,11.91
2023-02-15T12:19:32.392Z,11.97
2023-02-15T12:22:00.825Z,12.03
2023-02-15T12:24:32.889Z,12.10
2023-02-15T12:27:04.682Z,12.16
2023-02-15T12:29:48.638Z,12.22
2023-02-15T12:32:29.907Z,12.28
2023-02-15T12:35:08.748Z,12.34
2023-02-15T12:37:36.770Z,12.37
2023-02-15T12:40:23.618Z,12.43
2023-02-15T12:42:50.455Z,12.47
2023-02-15T12:45:31.442Z,12.54
2023-02-15T12:48:13.448Z,12.59
2023-02-15T12:50:42.206Z,12.61
2023-02-15T12:53:33.093Z,12.67
2023-02-15T12:56:01.864Z,12.69
2023-02-15T12:58:34.223Z,12.73
2023-02-15T13:01:18.707Z,12.77
2023-02-15T13:03:57.392Z,12.80
2023-02-15T13:06:24.984Z,12.82
2023-02-15T13:08:58.983Z,12.87
2023-02-15T13:11:36.069Z,12.89
2023-02-15T13:14:34.366Z,12.93
2023-02-15T13:17:06.585Z,12.95
2023-02-15T13:19:48.348Z,13.00
2023-02-15T13:22:45.546Z,13.03
2023-02-15T13:25:29.404Z,13.07
2023-02-15T13:28:03.389Z,13.11
2023-02-15T13:30:36.020Z,13.15
2023-02-15T13:33:35.094Z,13.20
2023-02-15T13:36:18.842Z,13.22
2023-02-15T13:39:06.370Z,13.28
2023-02-15T13:41:53.359Z,13.30
2023-02-15T13:44:51.429Z,13.33
2023-02-15T13:47:49.283Z,13.34
2023-02-15T13:50:52.467Z,13.35
2023-02-15T13:53:50.139Z,13.32
2023-02-15T13:56:50.363Z,13.30
2023-02-15T13:59:46.583Z,13.30
2023-02-15T14:02:50.648Z,13.33
2023-02-15T14:05:43.758Z,13.38
2023-02-15T14:08:19.526Z,13.43
2023-02-15T14:10:51.188Z,13.50
2023-02-15T14:13:20.862Z,13.54
2023-02-15T14:16:20.736Z,13.55
2023-02-15T14:18:56.933Z,13.53
2023-02-15T14:21:48.786Z,13.49
2023-02-15T14:24:33.741Z,13.46
2023-02-15T14:27:17.359Z,13.41
2023-02-15T14:30:01.436Z,13.36
2023-02-15T14:32:36.810Z,13.30
2023-02-15T14:35:16.276Z,13.26
2023-02-15T14:37:59.748Z,13.20
2023-02-15T14:41:03.656Z,13.12
2023-02-15T14:44:05.159Z,13.03
2023-02-15T14:47:03.460Z,12.96
2023-02-15T14:49:36.569Z,12.91
2023-02-15T14:52:13.837Z,12.88
2023-02-15T14:54:40.478Z,12.84
2023-02-15T14:57:07.277Z,12.81
2023-02-15T15:00:07.843Z,12.81
2023-02-15T15:02:43.483Z,12.76
2023-02-15T15:05:27.551Z,12.74
2023-02-15T15:07:58.221Z,12.70
2023-02-15T15:11:00.560Z,12.69
2023-02-15T15:13:33.327Z,12.66
2023-02-15T15:16:49.550Z,12.62
2023-02-15T15:19:51.893Z,12.62
2023-02-15T15:22:24.979Z,12.57
2023-02-15T15:25:13.699Z,12.57
2023-02-15T15:27:54.299Z,12.53
2023-02-15T15:30:24.109Z,12.51
2023-02-15T15:32:57.613Z,12.50
2023-02-15T15:36:04.860Z,12.47
2023-02-15T15:39:04.569Z,12.40
2023-02-15T15:42:02.816Z,12.36
2023-02-15T15:44:48.610Z,12.31
2023-02-15T15:47:41.302Z,12.26
2023-02-15T15:50:18.761Z,12.22
2023-02-15T15:52:52.373Z,12.17
2023-02-15T15:55:23.230Z,12.11
2023-02-15T15:57:54.767Z,12.08
2023-02-15T16:00:40.789Z,12.02
2023-02-15T16:03:16.961Z,11.97
2023-02-15T16:05:43.809Z,11.91
2023-02-15T16:08:10.599Z,11.85
2023-02-15T16:10:38.895Z,11.80
2023-02-15T16:13:07.643Z,11.75
2023-02-15T16:15:50.835Z,11.71
2023-02-15T16:18:19.860Z,11.63
2023-02-15T16:20:57.200Z,11.59
2023-02-15T16:23:57.907Z,11.51
2023-02-15T16:26:49.833Z,11.44
2023-02-15T16:29:32.624Z,11.36
2023-02-15T16:32:06.741Z,11.31
2023-02-15T16:34:33.630Z,11.19
2023-02-15T16:37:18.771Z,11.14
2023-02-15T16:39:48.884Z,11.07
2023-02-15T16:42:17.951Z,11.03
2023-02-15T16:44:49.175Z,10.99
2023-02-15T16:47:25.530Z,10.94
2023-02-15T16:49:56.832Z,10.89
2023-02-15T16:52:26.798Z,10.84
2023-02-15T16:55:03.717Z,10.79
2023-02-15T16:57:39.053Z,10.74
2023-02-15T17:00:19.597Z,10.69
2023-02-15T17:03:14.537Z,10.64
2023-02-15T17:05:45.492Z,10.52
2023-02-15T17:08:42.578Z,10.49
2023-02-15T17:11:20.414Z,10.45
2023-02-15T17:14:06.381Z,10.40
2023-02-15T17:16:36.512Z,10.37
2023-02-15T17:19:11.119Z,10.35
2023-02-15T17:22:02.519Z,10.30
2023-02-15T17:24:42.034Z,10.28
2023-02-15T17:27:19.955Z,10.25
2023-02-15T17:29:59.224Z,10.22
2023-02-15T17:32:32.440Z,10.19
2023-02-15T17:35:18.224Z,10.17
2023-02-15T17:37:48.434Z,10.14
2023-02-15T17:40:28.271Z,10.11
2023-02-15T17:42:55.962Z,10.08
2023-02-15T17:55:04.938Z,9.87
2023-02-15T17:57:32.068Z,9.83
2023-02-15T18:00:17.140Z,9.82
2023-02-15T18:03:03.418Z,9.80
2023-02-15T18:05:48.685Z,9.76
2023-02-15T18:08:37.129Z,9.73
2023-02-15T18:11:22.443Z,9.70
2023-02-15T18:13:49.200Z,9.67
2023-02-15T18:16:23.925Z,9.66
2023-02-15T18:18:50.746Z,9.63
2023-02-15T18:21:17.506Z,9.62
2023-02-15T18:23:44.356Z,9.60
2023-02-15T18:26:18.953Z,9.58
2023-02-15T18:28:45.777Z,9.55
2023-02-15T18:31:13.509Z,9.53
2023-02-15T18:33:54.406Z,9.51
2023-02-15T18:36:27.880Z,9.49
2023-02-15T18:38:56.038Z,9.45
2023-02-15T18:41:23.237Z,9.44
2023-02-15T18:43:51.441Z,9.43
2023-02-15T18:46:18.340Z,9.43
2023-02-15T18:48:46.918Z,9.42
2023-02-15T18:51:24.230Z,9.43
2023-02-15T18:53:53.366Z,9.40
2023-02-15T18:56:22.655Z,9.40
2023-02-15T18:58:49.647Z,9.39
2023-02-15T19:01:21.288Z,9.40
2023-02-15T19:03:50.723Z,9.38
2023-02-15T19:06:20.564Z,9.37
2023-02-15T19:08:50.254Z,9.37
2023-02-15T19:11:23.598Z,9.36
2023-02-15T19:13:52.128Z,9.32
2023-02-15T19:16:35.473Z,9.32
2023-02-15T19:19:02.554Z,9.30
2023-02-15T19:21:32.616Z,9.27
2023-02-15T19:24:07.900Z,9.27
2023-02-15T19:26:45.628Z,9.27
2023-02-15T19:29:16.202Z,9.23
2023-02-15T19:31:43.275Z,9.22
2023-02-15T19:34:15.668Z,9.22
2023-02-15T19:36:45.603Z,9.21
2023-02-15T19:39:33.640Z,9.21
2023-02-15T19:42:00.553Z,9.20
2023-02-15T19:44:27.341Z,9.18
2023-02-15T19:46:54.112Z,9.19
2023-02-15T19:49:21.025Z,9.18
2023-02-15T19:51:48.093Z,9.17
2023-02-15T19:54:28.288Z,9.19
2023-02-15T19:56:55.248Z,9.17
2023-02-15T19:59:31.160Z,9.16
2023-02-15T20:01:58.330Z,9.14
2023-02-15T20:04:26.224Z,9.13
2023-02-15T20:06:56.240Z,9.14
2023-02-15T20:09:35.387Z,9.14
2023-02-15T20:12:02.141Z,9.12
2023-02-15T20:14:28.933Z,9.10
2023-02-15T20:16:55.985Z,9.11
2023-02-15T20:19:22.770Z,9.09
2023-02-15T20:21:54.316Z,9.09
2023-02-15T20:24:22.698Z,9.08
2023-02-15T20:26:49.712Z,9.08
2023-02-15T20:29:18.738Z,9.08
2023-02-15T20:31:45.895Z,9.07
2023-02-15T20:34:12.909Z,9.06
2023-02-15T20:36:41.160Z,9.06
2023-02-15T20:39:20.013Z,9.06
2023-02-15T20:41:49.350Z,9.06
2023-02-15T20:44:31.602Z,9.07
2023-02-15T20:47:00.142Z,9.05
2023-02-15T20:49:27.898Z,9.04
2023-02-15T20:51:56.480Z,9.04
2023-02-15T20:54:26.406Z,9.04
2023-02-15T20:56:54.197Z,9.03
2023-02-15T20:59:24.023Z,9.02
2023-02-15T21:01:55.750Z,9.01
2023-02-15T21:04:28.968Z,9.01
2023-02-15T21:06:56.542Z,8.97
2023-02-15T21:09:23.682Z,8.97
2023-02-15T21:11:53.777Z,8.96
2023-02-15T21:14:24.023Z,8.95
2023-02-15T21:16:51.573Z,8.93
2023-02-15T21:19:22.274Z,8.93
2023-02-15T21:21:52.392Z,8.91
2023-02-15T21:24:26.684Z,8.90
2023-02-15T21:26:54.908Z,8.89
2023-02-15T21:29:25.542Z,8.88
2023-02-15T21:31:52.772Z,8.86
2023-02-15T21:34:20.157Z,8.85
2023-02-15T21:36:48.472Z,8.85
2023-02-15T21:39:27.408Z,8.84
2023-02-15T21:42:14.027Z,8.83
2023-02-15T21:44:59.798Z,8.82
2023-02-15T21:47:49.225Z,8.78
2023-02-15T21:50:43.043Z,8.78
2023-02-15T21:53:14.039Z,8.75
2023-02-15T21:55:40.988Z,8.75
2023-02-15T21:58:15.521Z,8.74
2023-02-15T22:00:43.425Z,8.72
2023-02-15T22:03:12.088Z,8.74
2023-02-15T22:05:38.993Z,8.72
2023-02-15T22:08:12.872Z,8.71
2023-02-15T22:10:40.564Z,8.70
2023-02-15T22:13:15.303Z,8.69
2023-02-15T22:15:42.834Z,8.66
2023-02-15T22:18:22.667Z,8.66
2023-02-15T22:20:49.630Z,8.64
2023-02-15T22:23:16.471Z,8.62
2023-02-15T22:25:56.511Z,8.62
2023-02-15T22:28:31.344Z,8.60
2023-02-15T22:30:58.174Z,8.58
2023-02-15T22:33:34.145Z,8.57
2023-02-15T22:36:01.280Z,8.53
2023-02-15T22:38:28.169Z,8.52
2023-02-15T22:40:58.568Z,8.53
2023-02-15T22:43:40.835Z,8.50
2023-02-15T22:46:14.831Z,8.48
2023-02-15T22:48:43.869Z,8.47
2023-02-15T22:51:20.853Z,8.47
2023-02-15T22:53:52.079Z,8.44
2023-02-15T22:56:26.538Z,8.42
2023-02-15T22:59:00.161Z,8.43
2023-02-15T23:01:34.210Z,8.41
2023-02-15T23:04:03.434Z,8.38
2023-02-15T23:06:30.555Z,8.37
2023-02-15T23:08:57.354Z,8.37
2023-02-15T23:11:24.118Z,8.36
2023-02-15T23:13:51.055Z,8.35
2023-02-15T23:16:18.697Z,8.35
2023-02-15T23:18:47.274Z,8.32
2023-02-15T23:21:21.861Z,8.34
2023-02-15T23:23:52.557Z,8.32
2023-02-15T23:26:31.126Z,8.31
2023-02-15T23:29:00.755Z,8.29
2023-02-15T23:31:34.209Z,8.27
2023-02-15T23:34:06.650Z,8.25
2023-02-15T23:36:39.071Z,8.25
2023-02-15T23:39:36.461Z,8.23
2023-02-15T23:42:09.905Z,8.21
2023-02-15T23:44:37.438Z,8.19
2023-02-15T23:47:05.129Z,8.17
2023-02-15T23:49:31.921Z,8.17
2023-02-15T23:52:02.218Z,8.15
2023-02-15T23:54:29.633Z,8.14
2023-02-15T23:57:00.409Z,8.13
2023-02-15T23:59:30.477Z,8.10
